www.nordhorn-wetter.com
Wetterdaten: aktuell Samstag, 05.09.2026 20:37
Datum Zeit Temp. A. BodenT -5cm Temp +10cm Extra Temp Feuchte A. BlattFeuchte Bod.Feu -5cm Luftdruck Regen Wind Richtung Richtung Sonnenschein ET UV Solar Taupunkt Windböen Empfang
05.09.2026 20:37 15,0 °C 0,0 °C 17,8 °C 17,3 °C 79 % 0 lf 25 cb 1023,1 hPa 0,0 mm 4,8 km/h (1 Bft) W 276 ° 3 min 0,076 mm 0,0 UV-I 0 W/m² 11,4 °C 6,4 km/h (2 Bft) 100,00 %
05.09.2026 19:37 16,5 °C 0,0 °C 18,3 °C 17,3 °C 74 % 0 lf 24 cb 1022,5 hPa 0,0 mm 12,9 km/h (3 Bft) W-NW 300 ° 17 min 0,102 mm 0,0 UV-I 32 W/m² 11,8 °C 20,9 km/h (4 Bft) 100,00 %
05.09.2026 18:37 17,6 °C 0,0 °C 18,9 °C 17,3 °C 71 % 0 lf 24 cb 1021,8 hPa 0,0 mm 9,6 km/h (2 Bft) W-NW 290 ° 22 min 0,203 mm 0,6 UV-I 193 W/m² 12,3 °C 17,7 km/h (3 Bft) 95,83 %
05.09.2026 17:37 18,6 °C 0,0 °C 18,9 °C 17,3 °C 70 % 0 lf 24 cb 1021,0 hPa 0,0 mm 13,9 km/h (3 Bft) W-SW 255 ° 25 min 0,178 mm 1,2 UV-I 149 W/m² 13,0 °C 25,7 km/h (4 Bft) 95,65 %
05.09.2026 16:37 18,1 °C 0,0 °C 18,9 °C 17,3 °C 72 % 0 lf 23 cb 1020,5 hPa 0,0 mm 20,0 km/h (4 Bft) W-NW 294 ° 15 min 0,254 mm 1,4 UV-I 163 W/m² 13,0 °C 29,0 km/h (5 Bft) 100,00 %
05.09.2026 15:37 18,7 °C 0,0 °C 18,9 °C 17,3 °C 71 % 0 lf 23 cb 1019,9 hPa 0,0 mm 17,0 km/h (3 Bft) W 259 ° 18 min 0,229 mm 1,8 UV-I 211 W/m² 13,3 °C 27,4 km/h (5 Bft) 100,00 %
05.09.2026 14:37 18,3 °C 0,0 °C 18,3 °C 16,8 °C 77 % 0 lf 23 cb 1019,6 hPa 0,0 mm 17,6 km/h (3 Bft) W-NW 302 ° 15 min 0,152 mm 1,8 UV-I 220 W/m² 14,2 °C 24,1 km/h (4 Bft) 95,65 %
05.09.2026 13:37 18,2 °C 0,0 °C 18,3 °C 16,2 °C 75 % 0 lf 23 cb 1018,8 hPa 0,0 mm 18,6 km/h (3 Bft) W 275 ° 12 min 0,000 mm 2,2 UV-I 335 W/m² 13,7 °C 29,0 km/h (5 Bft) 95,83 %
05.09.2026 12:37 16,1 °C 0,0 °C 17,2 °C 16,2 °C 88 % 15 lf 23 cb 1018,4 hPa 0,0 mm 8,0 km/h (2 Bft) W-SW 251 ° 0 min 0,000 mm 1,1 UV-I 182 W/m² 14,1 °C 12,9 km/h (3 Bft) 100,00 %
05.09.2026 11:37 17,7 °C 0,0 °C 17,2 °C 16,2 °C 79 % 15 lf 22 cb 1017,4 hPa 0,0 mm 13,3 km/h (3 Bft) W 274 ° 13 min 0,000 mm 0,6 UV-I 91 W/m² 14,0 °C 19,3 km/h (3 Bft) 95,83 %
05.09.2026 10:37 18,4 °C 0,0 °C 16,7 °C 15,7 °C 79 % 0 lf 22 cb 1016,6 hPa 0,0 mm 17,4 km/h (3 Bft) S-SW 200 ° 48 min 0,000 mm 2,1 UV-I 425 W/m² 14,7 °C 24,1 km/h (4 Bft) 95,65 %
05.09.2026 09:37 16,8 °C 0,0 °C 16,1 °C 15,7 °C 84 % 0 lf 23 cb 1016,2 hPa 0,0 mm 8,8 km/h (2 Bft) W-SW 238 ° 60 min 0,000 mm 1,5 UV-I 500 W/m² 14,1 °C 14,5 km/h (3 Bft) 91,67 %
05.09.2026 08:37 14,8 °C 0,0 °C 16,1 °C 15,7 °C 87 % 0 lf 23 cb 1015,7 hPa 0,0 mm 8,6 km/h (2 Bft) W-SW 244 ° 31 min 0,000 mm 0,7 UV-I 193 W/m² 12,7 °C 19,3 km/h (3 Bft) 100,00 %
05.09.2026 07:37 13,1 °C 0,0 °C 18,9 °C 17,9 °C 91 % 0 lf 25 cb 1015,2 hPa 0,0 mm 9,6 km/h (2 Bft) S-SW 209 ° 2 min 0,000 mm 0,0 UV-I 28 W/m² 11,7 °C 14,5 km/h (3 Bft) 100,00 %
05.09.2026 06:37 12,8 °C 0,0 °C 18,9 °C 17,9 °C 91 % 0 lf 25 cb 1014,8 hPa 0,0 mm 5,9 km/h (2 Bft) SW 233 ° 0 min 0,000 mm 0,0 UV-I 0 W/m² 11,4 °C 8,0 km/h (2 Bft) 100,00 %
05.09.2026 05:37 13,1 °C 0,0 °C 18,9 °C 17,9 °C 91 % 0 lf 25 cb 1014,6 hPa 0,0 mm 5,7 km/h (2 Bft) W-SW 249 ° 0 min 0,000 mm 0,0 UV-I 0 W/m² 11,7 °C 11,3 km/h (2 Bft) 95,83 %
05.09.2026 04:37 13,4 °C 0,0 °C 18,9 °C 17,9 °C 89 % 0 lf 25 cb 1014,3 hPa 0,0 mm 5,9 km/h (2 Bft) W-SW 242 ° 0 min 0,000 mm 0,0 UV-I 0 W/m² 11,6 °C 12,9 km/h (3 Bft) 100,00 %
05.09.2026 03:37 13,6 °C 0,0 °C 18,9 °C 17,9 °C 90 % 0 lf 25 cb 1013,9 hPa 0,0 mm 10,5 km/h (2 Bft) S-SW 193 ° 0 min 0,000 mm 0,0 UV-I 0 W/m² 12,0 °C 16,1 km/h (3 Bft) 86,96 %
05.09.2026 02:37 13,9 °C 0,0 °C 18,9 °C 17,9 °C 89 % 0 lf 25 cb 1013,8 hPa 0,0 mm 8,1 km/h (2 Bft) W-SW 246 ° 0 min 0,000 mm 0,0 UV-I 0 W/m² 12,1 °C 14,5 km/h (3 Bft) 100,00 %
05.09.2026 01:37 14,3 °C 0,0 °C 18,9 °C 17,9 °C 89 % 0 lf 25 cb 1013,4 hPa 0,0 mm 6,1 km/h (2 Bft) W-SW 238 ° 0 min 0,000 mm 0,0 UV-I 0 W/m² 12,5 °C 8,0 km/h (2 Bft) 100,00 %
05.09.2026 00:37 14,4 °C 0,0 °C 18,9 °C 17,9 °C 91 % 0 lf 25 cb 1013,1 hPa 7,8 mm 7,3 km/h (2 Bft) SW 227 ° 0 min 1,016 mm 0,0 UV-I 0 W/m² 12,9 °C 11,3 km/h (2 Bft) 100,00 %
05.09.2026 00:00 14,7 °C 0,0 °C 18,9 °C 17,9 °C 91 % 0 lf 25 cb 1012,8 hPa 0,0 mm 6,5 km/h (2 Bft) SW 232 ° 0 min 0,000 mm 0,0 UV-I 0 W/m² 13,2 °C 8,0 km/h (2 Bft) 100,00 %
_ Min-Zeit 06:51 20:37 10:08 11:27 17:46 20:37 12:16 00:13 - 20:17 - - - - - - 06:26 20:23 20:14
Minimum _ 12,7 °C 0,0 °C 16,1 °C 15,7 °C 67 % 0 lf 22 cb 1012,8 hPa - 3,4 km/h (1 Bft) - - - - - - 11,2 °C 4,8 km/h (1 Bft) 82,61 %
_ Max-Zeit 15:17 20:37 16:08 08:22 00:34 12:54 20:37 20:37 00:02 12:03 - - 19:59 00:02 13:57 13:58 10:54 16:48 20:37
Maximum _ 19,9 °C 0,0 °C 19,4 °C 17,9 °C 92 % 15 lf 25 cb 1023,1 hPa 7,8 mm 23,4 km/h
W-NW (4 Bft)
- - 1 min 1,016 mm 4,6 UV-I 947 W/m² 15,0 °C 38,6 km/h
W (6 Bft)
100,00 %
Durchschnitt _ 15,9 °C 0,0 °C 18,3 °C 17,1 °C 82 % 1 lf 24 cb 1017,2 hPa #7,8 mm 10,0 km/h (2 Bft) W-SW - #4:41 h #2,210 mm 1,6 UV-I 229 W/m² 12,8 °C 16,0 km/h (3 Bft) 96,30 %
© 2006-2026 Nordhorn-Wetter.com